Sábado, 02 de Agosto del 2014

portal contactenos mapa del sitio buscar Revisar Correo Corporativo

|Reporte METAR por Reginal » ||Reporte TAF por Reginal » ||Reporte METAR, TAF y SIN覲TICO »

Reporte METAR por Regional

|| La Paz || Santa Cruz || Cochabamba || Beni - Pando ||

Informe METAR emitido cada hora.

Regional La Paz

ESTACIÓN

AEROPUERTO

HORA UTC

DESCRIPCIÓN

SLRY

Reyes

14-18S|67-21W

22:00

SLRY 012200Z 00000KT 9999 FEW020 30/23 Q1012 A2990 HR65 RWY OPR 1 000M=

SLRQ

Rurrenabaque

14-25S|67-29W

22:00

SLRQ 012200Z 34008KT 9999 FEW020 29/25 Q1011 A2987 HR80=

SLAP

Apolo

14-44S|68-24W

19:00

SLAP 301900Z WO ATTN=

SLSB

San Borja

14-51S|66-44W

23:00

SLSB 012300Z 00000KT 9999 NSC 27/23 Q1011 A2987 HR76 RWY NML=

SLLP

Internaci贸nal El Alto

16-08S|68-10W

06:00

SLLP 020600Z 01006KT 9999 NSC 01/M15 Q1038 A3068 628.5 HR28 NOSIG=

SLCN

Chara帽a

17-35S|69-25W

-

SLCN WO ATTN=

SLOR

Oruro

17-57S|67-04W

23:00

SLOR 012300Z 14008KT 9999 FEW017 08/M03 Q1035 A3057 656.1 HR46=

SLUY

Uyuni

20-27S|62-52W

21:00

SLUY 012100Z 31008KT 9999 NSC 14/M03 Q1033 A3052 657.9 CI HR29=

Regional Cochabamba

ESTACIÓN

AEROPUERTO

HORA UTC

DESCRIPCIÓN

SLCB

Cochabamba

17-25S|66-10W

06:00

SLCB 020600Z 00000KT 9999 NSC 09/03 Q1027 A3035 753.4 HR68 FU NOSIG=

SLSU

Sucre

19-00S|65-17W

23:00

SLSU 012300Z 03008KT 9999 NSC 17/M03 Q1028 A3036 HR26=

SLPO

Potos铆

19-32S|65-43W

21:00

SLPO 012100Z 06010KT 9999 NSC 13/M08 Q1035 A3056 HR21=

SLAG

Monteagudo

19-49S|63-58W

21:00

SLAG 012100Z 00000KT 9999 NSC 29/15 Q1016 A3000 HR42 CC RWY CLSD=

SLVM

Villamontes

21-15S|63-24W

21:00

SLVM 012100Z 00000KT 9999 NSC 31/18 Q1009 A2980 HR46 FU=

SLTJ

Tarija

21-33S|64-42W

03:00

SLTJ 020300Z 00000KT 9999 NSC 14/05 Q1020 A3014 HR58 FU=

SLYA

Yacuiba

21-57S|63-39W

23:00

SLYA 012300Z 00000KT 9999 NSC 21/17 Q1012 A2989 HR77=

SLBJ

Bermejo

22-46S|64-18W

21:00

SLBJ 012100Z 36004KT 9999 NSC 30/22 Q1007 A2974 HR62=

Regional Santa Cruz

ESTACIÓN

AEROPUERTO

HORA UTC

DESCRIPCIÓN

SLAS

Ascenci贸n de Guarayos

15-55S|63-09W

23:00

SLAS 012300Z 00000KT 9999 FEW020 27/23 Q1014 A2994 HR79 RWY NML =

SLCP

Concepci贸n

16-08S|62-01W

22:00

SLCP 012200Z 00000KT 9999 NSC 28/21 Q1016 A3000 HR65 RWY NML=

SLJV

San Javier

16-16S|62-28W

22:00

SLJV 012200Z 00000KT 9999 NSC 27/20 Q1013 A2991 HR65 RWY NML=

SLTI

San Mat铆as

16-20S|58-24W

22:00

SLTI 012200Z 00000KT 9999 NSC 28/24 Q1018 A3006 HR82 RWY NML=

SLSI

San Ignacio de Velasco

16-23S|60-57W

23:00

SLSI 012300Z 00000KT 9999 NSC 27/22 Q1014 A2994 HR74 RWY NML=

SLVR

Internaci贸nal Viru Viru

17-38S|63-08W

06:00

SLVR 020600Z 33006KT 9999 NSC 21/20 Q1013 A2993 HR95 NOSIG=

SLET

El Trompillo

17-48S|63-10W

23:00

SLET 012300Z 33012KT 9999 FEW017 25/18 Q1012 A2989 HR64 NOSIG=

SLJE

San Jos茅 de Chiquitos

17-49S|60-44W

22:00

SLJE 012200Z 00000KT 9999 NSC 28/21 Q1014 A2994 HR66 RWY NML=

SLRB

Robor茅

18-19S|59-45W

23:00

SLRB 012300Z 36006KT 9999 NSC 27/23 Q1016 A3000 HR80 RWY NML=

SLVG

Valle Grande

18-28S|64-05W

21:00

SLVG 012100Z 03008KT 9999 NSC 21/12 Q1023 A3021 HR56 RWY NML=

SLPS

Puerto Su谩rez

18-58S|57-49W

23:00

SLPS 012300Z 09005KT 9999 NSC 26/23 Q1011 A2986 HR81 FU=

SLCA

Camiri

20-00S|63-31W

23:00

SLCA 012300Z 00000KT 9999 NSC 24/18 Q1014 A2994 HR70 RWY NML=

Regional Beni

ESTACIÓN

AEROPUERTO

HORA UTC

DESCRIPCIÓN

SLGM

Guayaramer铆n

10-49S|65-20W

23:00

SLGM 012300Z 00000KT 9999 SCT017 FEW020CB BKN200 27/21 Q1011 A2988 HR73 CB NE=

SLRI

Riberalta

11-00S|66-04W

23:00

SLRI 012300Z 00000KT 7000 FEW017 FEW020CB BKN200 30/23 Q1011 A2988 HR64 FU CB E=

SLCO

Cobija

11-02S|68-47W

22:00

SLCO 012200Z 00000KT 9999 FEW030 FEW033CB 32/22 Q1011 A2987 984.0 HR55 CB SE=

SLJO

San Joaquin

13-03S|64-39W

22:00

SLJO 012200Z 00000KT 9999 FEW020 32/23 Q1010 A2985 HR61 RWY NML=

SLMG

San Magdalena

13-15S|64-03W

23:00

SLMG 012300Z 00000KT 9999 FEW020 29/24 Q1011 A2988 HR77 RWY NML=

SLRA

San Ram贸n

13-15S|64-36W

22:00

SLRA 012200Z 32004KT 9999 FEW020 32/22 Q1012 A2989 HR57 RWY NML=

SLBU

Baures

13-39S|63-42W

22:00

SLBU 012200Z 35004KT 9999 SCT017 29/24 Q1012 A2989 HR76 RWY NML=

SLSA

Santa Ana de Yacuma

13-45S|65-26W

23:00

SLSA 012300Z 32004KT 9999 FEW020 SCT200 28/22 Q1011 A2987 HR67=

SLSR

Santa Rosa

14-04S|66-47W

22:00

SLSR 012200Z 35003KT 9999 FEW020 31/22 Q1007 A2974 HR57 RWY NML=

SLTR

Trinidad

14-49S|64-54W

-

SLTR 020000Z 00000KT 9999 NSC 26/23 Q1012 A2990 994.0 HR84 NOSIG=

SLSM

San Ignacio de Moxos

14-57S|65-38W

22:00

SLSM 012200Z 00000KT 9999 FEW017 FEW023CB 30/23 Q1012 A2989 HR66 CB N RWY NML=